createdAt,value
2022-09-26T00:00:42.320Z,63510.31
2022-09-26T00:03:44.511Z,63510.31
2022-09-26T00:06:46.270Z,63510.31
2022-09-26T00:09:48.834Z,63510.31
2022-09-26T00:12:50.472Z,63510.31
2022-09-26T00:15:52.292Z,63510.31
2022-09-26T00:18:54.485Z,63510.31
2022-09-26T00:21:56.076Z,63510.31
2022-09-26T00:24:57.639Z,63510.31
2022-09-26T00:27:59.184Z,63510.31
2022-09-26T00:31:04.806Z,63510.31
2022-09-26T00:34:06.473Z,63510.31
2022-09-26T00:37:08.167Z,63510.31
2022-09-26T00:40:09.990Z,63510.31
2022-09-26T00:43:30.518Z,63510.31
2022-09-26T00:46:38.230Z,63510.31
2022-09-26T00:49:41.262Z,63510.31
2022-09-26T00:53:06.193Z,63510.31
2022-09-26T00:56:10.094Z,63510.31
2022-09-26T00:59:20.193Z,63510.31
2022-09-26T01:02:22.001Z,63510.31
2022-09-26T01:05:23.784Z,63510.31
2022-09-26T01:08:26.603Z,63510.31
2022-09-26T01:11:28.214Z,63510.31
2022-09-26T01:14:31.579Z,63510.31
2022-09-26T01:17:33.157Z,63510.31
2022-09-26T01:20:34.710Z,63510.31
2022-09-26T01:23:56.494Z,63510.31
2022-09-26T01:26:58.269Z,63510.31
2022-09-26T01:30:13.057Z,63510.31
2022-09-26T01:33:28.429Z,63510.31
2022-09-26T01:36:39.296Z,63510.31
2022-09-26T01:39:40.836Z,63510.31
2022-09-26T01:42:45.214Z,63510.31
2022-09-26T01:45:46.869Z,63510.31
2022-09-26T01:48:51.583Z,63510.31
2022-09-26T01:51:54.021Z,63510.31
2022-09-26T01:54:57.706Z,63510.31
2022-09-26T01:58:02.150Z,63510.31
2022-09-26T02:01:04.875Z,63510.31
2022-09-26T02:04:10.818Z,63510.31
2022-09-26T02:07:13.409Z,63510.31
2022-09-26T02:10:19.477Z,63510.31
2022-09-26T02:13:23.064Z,63510.31
2022-09-26T02:16:40.741Z,63510.31
2022-09-26T02:19:48.414Z,63510.31
2022-09-26T02:22:49.989Z,63510.31
2022-09-26T02:25:51.522Z,63510.31
2022-09-26T02:28:53.092Z,63510.31
2022-09-26T02:31:59.283Z,63510.31
2022-09-26T02:35:00.929Z,63510.31
2022-09-26T02:38:06.723Z,63510.31
2022-09-26T02:41:20.003Z,63510.31
2022-09-26T02:44:32.265Z,63510.31
2022-09-26T02:47:37.010Z,63510.31
2022-09-26T02:50:52.271Z,63510.31
2022-09-26T02:54:20.124Z,63510.31
2022-09-26T02:57:40.090Z,63510.31
2022-09-26T03:00:45.305Z,63510.31
2022-09-26T03:03:54.390Z,63510.31
2022-09-26T03:06:58.055Z,63510.31
2022-09-26T03:10:00.633Z,63510.31
2022-09-26T03:13:03.930Z,63510.31
2022-09-26T03:16:05.701Z,63510.31
2022-09-26T03:19:27.323Z,63510.31
2022-09-26T03:22:28.878Z,63510.31
2022-09-26T03:25:30.738Z,63510.31
2022-09-26T03:28:38.175Z,63510.31
2022-09-26T03:31:40.604Z,63510.31
2022-09-26T03:34:45.149Z,63510.31
2022-09-26T03:37:47.829Z,63510.31
2022-09-26T03:40:49.728Z,63510.31
2022-09-26T03:44:21.680Z,63510.31
2022-09-26T03:47:38.795Z,63510.31
2022-09-26T03:50:41.010Z,63510.31
2022-09-26T03:53:43.311Z,63510.31
2022-09-26T03:56:48.393Z,63510.31
2022-09-26T03:59:51.683Z,63510.31
2022-09-26T04:02:54.062Z,63510.31
2022-09-26T04:06:19.848Z,63510.31
2022-09-26T04:09:22.173Z,63510.31
2022-09-26T04:12:25.947Z,63510.31
2022-09-26T04:15:28.585Z,63510.31
2022-09-26T04:18:39.978Z,63510.31
2022-09-26T04:21:41.918Z,63510.31
2022-09-26T04:24:44.610Z,63510.31
2022-09-26T04:27:48.199Z,63510.31
2022-09-26T04:30:50.425Z,63510.31
2022-09-26T04:33:55.186Z,63510.31
2022-09-26T04:36:59.357Z,63510.31
2022-09-26T04:40:01.262Z,63510.31
2022-09-26T04:43:02.962Z,63510.31
2022-09-26T04:46:08.714Z,63510.31
2022-09-26T04:49:12.605Z,63510.31
2022-09-26T04:52:14.967Z,63510.31
2022-09-26T04:55:16.833Z,63510.31
2022-09-26T04:58:18.538Z,63510.31
2022-09-26T05:01:21.473Z,63510.31
2022-09-26T05:04:40.389Z,63510.31
2022-09-26T05:07:42.444Z,63510.31
2022-09-26T05:10:44.105Z,63510.31
2022-09-26T05:13:48.079Z,63510.31
2022-09-26T05:16:52.359Z,63510.31
2022-09-26T05:19:54.357Z,63510.31
2022-09-26T05:23:03.733Z,63510.31
2022-09-26T05:26:22.427Z,63510.31
2022-09-26T05:29:24.611Z,63510.31
2022-09-26T05:32:30.752Z,63510.31
2022-09-26T05:35:35.915Z,63510.31
2022-09-26T05:38:38.064Z,63510.31
2022-09-26T05:41:39.937Z,63510.31
2022-09-26T05:44:42.891Z,63510.31
2022-09-26T05:47:45.158Z,63510.31
2022-09-26T05:50:46.779Z,63510.31
2022-09-26T05:53:49.575Z,63510.31
2022-09-26T05:56:54.816Z,63510.31
2022-09-26T06:00:02.532Z,63510.31
2022-09-26T06:03:23.056Z,63510.31
2022-09-26T06:06:44.319Z,63510.31
2022-09-26T06:09:50.719Z,63510.31
2022-09-26T06:13:15.388Z,63510.31
2022-09-26T06:16:21.941Z,63510.31
2022-09-26T06:19:23.730Z,63510.31
2022-09-26T06:22:26.229Z,63510.31
2022-09-26T06:25:29.258Z,63510.31
2022-09-26T06:28:33.155Z,63510.31
2022-09-26T06:31:34.841Z,63510.31
2022-09-26T06:34:45.394Z,63510.31
2022-09-26T06:38:04.974Z,63510.31
2022-09-26T06:41:07.539Z,63510.31
2022-09-26T06:44:09.204Z,63510.31
2022-09-26T06:47:26.217Z,63510.31
2022-09-26T06:50:46.286Z,63510.31
2022-09-26T06:53:48.079Z,63510.31
2022-09-26T06:56:54.456Z,63510.31
2022-09-26T06:59:56.339Z,63510.31
2022-09-26T07:03:17.964Z,63510.31
2022-09-26T07:06:25.047Z,63510.31
2022-09-26T07:09:26.614Z,63510.31
2022-09-26T07:12:31.159Z,63510.31
2022-09-26T07:15:33.964Z,63510.31
2022-09-26T07:18:39.818Z,63510.31
2022-09-26T07:21:55.053Z,63510.31
2022-09-26T07:25:01.209Z,63510.31
2022-09-26T07:28:03.142Z,63510.31
2022-09-26T07:31:26.280Z,63510.31
2022-09-26T07:34:40.799Z,63510.31
2022-09-26T07:37:43.307Z,63510.31
2022-09-26T07:40:45.444Z,63510.31
2022-09-26T07:47:27.931Z,63510.31
2022-09-26T07:50:31.247Z,63510.31
2022-09-26T07:53:41.263Z,63510.31
2022-09-26T07:57:04.894Z,63510.31
2022-09-26T08:00:33.252Z,63510.31
2022-09-26T08:03:49.977Z,63510.31
2022-09-26T08:07:02.305Z,63510.31
2022-09-26T08:10:05.989Z,63510.31
2022-09-26T08:13:27.338Z,63510.31
2022-09-26T08:16:49.138Z,63510.31
2022-09-26T08:19:51.261Z,63510.31
2022-09-26T08:22:56.546Z,63510.31
2022-09-26T08:25:59.150Z,63510.31
2022-09-26T08:29:17.916Z,63510.31
2022-09-26T08:32:21.722Z,63510.31
2022-09-26T08:35:23.587Z,63510.31
2022-09-26T08:38:45.250Z,63510.31
2022-09-26T08:42:18.074Z,63510.31
2022-09-26T08:45:58.261Z,63510.31
2022-09-26T08:49:44.369Z,63510.31
2022-09-26T08:52:48.941Z,63510.31
2022-09-26T08:55:50.602Z,63510.31
2022-09-26T08:58:52.643Z,63510.31
2022-09-26T09:01:59.531Z,63510.31
2022-09-26T09:05:22.513Z,63510.31
2022-09-26T09:08:25.448Z,63510.31
2022-09-26T09:11:51.713Z,63510.31
2022-09-26T09:15:23.519Z,63510.31
2022-09-26T09:18:44.068Z,63510.31
2022-09-26T09:22:03.535Z,63510.31
2022-09-26T09:25:17.494Z,63510.31
2022-09-26T09:28:37.666Z,63510.31
2022-09-26T09:31:40.682Z,63510.31
2022-09-26T09:35:15.063Z,63510.31
2022-09-26T09:38:38.893Z,63510.31
2022-09-26T09:41:48.551Z,63510.31
2022-09-26T09:44:58.036Z,63510.31
2022-09-26T09:47:59.604Z,63510.31
2022-09-26T09:51:19.200Z,63510.31
2022-09-26T09:54:24.143Z,63510.31
2022-09-26T09:57:25.889Z,63510.31
2022-09-26T10:00:27.808Z,63510.31
2022-09-26T10:03:55.410Z,63510.31
2022-09-26T10:06:58.337Z,63510.31
2022-09-26T10:10:02.004Z,63510.31
2022-09-26T10:13:32.629Z,63510.31
2022-09-26T10:17:09.405Z,63510.31
2022-09-26T10:20:35.861Z,63510.31
2022-09-26T10:23:40.783Z,63510.31
2022-09-26T10:26:49.555Z,63510.31
2022-09-26T10:30:17.276Z,63510.31
2022-09-26T10:33:26.350Z,63510.31
2022-09-26T10:36:38.821Z,63510.31
2022-09-26T10:40:06.886Z,63510.31
2022-09-26T10:43:23.969Z,63510.31
2022-09-26T10:46:30.077Z,63510.31
2022-09-26T10:49:52.336Z,63510.31
2022-09-26T10:53:12.556Z,63510.31
2022-09-26T10:56:16.946Z,63510.31
2022-09-26T10:59:18.633Z,63510.31
2022-09-26T11:02:22.004Z,63510.31
2022-09-26T11:05:42.762Z,63510.31
2022-09-26T11:08:51.064Z,63510.31
2022-09-26T11:12:29.165Z,63510.31
2022-09-26T11:15:36.727Z,63510.31
2022-09-26T11:18:45.405Z,63510.31
2022-09-26T11:21:51.522Z,63510.31
2022-09-26T11:25:03.554Z,63510.31
2022-09-26T11:28:08.252Z,63510.31
2022-09-26T11:31:43.885Z,63510.31
2022-09-26T11:35:06.158Z,63510.31
2022-09-26T11:38:28.715Z,63510.31
2022-09-26T11:41:39.523Z,63510.31
2022-09-26T11:45:00.529Z,63510.31
2022-09-26T11:48:02.182Z,63510.31
2022-09-26T11:51:34.468Z,63510.31
2022-09-26T11:54:46.600Z,63510.31
2022-09-26T11:57:57.230Z,63510.31
2022-09-26T12:01:00.513Z,63510.31
2022-09-26T12:04:21.653Z,63510.31
2022-09-26T12:07:23.381Z,63510.31
2022-09-26T12:10:31.225Z,63510.31
2022-09-26T12:13:41.765Z,63510.31
2022-09-26T12:16:46.627Z,63510.31
2022-09-26T12:19:57.080Z,63510.31
2022-09-26T12:23:00.665Z,63510.31
2022-09-26T12:26:05.248Z,63510.31
2022-09-26T12:29:06.762Z,63510.31
2022-09-26T12:32:17.622Z,63510.31
2022-09-26T12:35:31.439Z,63510.31
2022-09-26T12:38:56.380Z,63510.31
2022-09-26T12:42:06.253Z,63510.31
2022-09-26T12:45:26.670Z,63510.31
2022-09-26T12:48:30.131Z,63510.31
2022-09-26T12:51:38.628Z,63510.31
2022-09-26T12:54:50.650Z,63510.31
2022-09-26T12:57:57.251Z,63510.31
2022-09-26T13:01:17.608Z,63510.31
2022-09-26T13:04:22.002Z,63510.31
2022-09-26T13:07:26.314Z,63510.31
2022-09-26T13:10:33.841Z,63510.31
2022-09-26T13:13:47.422Z,63510.31
2022-09-26T13:16:49.341Z,63510.31
2022-09-26T13:19:53.810Z,63510.31
2022-09-26T13:22:55.326Z,63510.31
2022-09-26T13:26:00.056Z,63510.31
2022-09-26T13:29:17.243Z,63510.31
2022-09-26T13:32:22.937Z,63510.31
2022-09-26T13:35:25.245Z,63510.31
2022-09-26T13:38:32.448Z,63510.31
2022-09-26T13:41:36.650Z,63510.31
2022-09-26T13:44:41.222Z,63510.31
2022-09-26T13:47:49.246Z,63510.31
2022-09-26T13:50:55.997Z,63510.31
2022-09-26T13:54:18.148Z,63510.31
2022-09-26T13:57:35.189Z,63510.31
2022-09-26T14:00:40.985Z,63510.31
2022-09-26T14:03:42.679Z,63510.31
2022-09-26T14:07:02.793Z,63510.31
2022-09-26T14:10:05.127Z,63510.31
2022-09-26T14:13:12.775Z,63510.31
2022-09-26T14:16:33.924Z,63510.31
2022-09-26T14:19:39.307Z,63510.31
2022-09-26T14:22:45.551Z,63510.31
2022-09-26T14:25:47.778Z,63510.31
2022-09-26T14:28:53.250Z,63510.31
2022-09-26T14:32:21.043Z,63510.31
2022-09-26T14:35:30.434Z,63510.31
2022-09-26T14:38:31.998Z,63510.31
2022-09-26T14:41:33.913Z,63510.31
2022-09-26T14:44:37.324Z,63510.31
2022-09-26T14:48:08.248Z,63510.31
2022-09-26T14:51:15.870Z,63510.31
2022-09-26T14:54:24.664Z,63510.31
2022-09-26T14:57:27.614Z,63510.31
2022-09-26T15:00:40.565Z,63510.31
2022-09-26T15:03:42.278Z,63510.31
2022-09-26T15:06:44.759Z,63510.31
2022-09-26T15:09:51.245Z,63510.31
2022-09-26T15:13:02.007Z,63510.31
2022-09-26T15:16:24.384Z,63510.31
2022-09-26T15:19:28.261Z,63510.31
2022-09-26T15:22:30.012Z,63510.31
2022-09-26T15:25:32.392Z,63510.31
2022-09-26T15:28:36.637Z,63510.31
2022-09-26T15:31:39.715Z,63510.31
2022-09-26T15:34:41.280Z,63510.31
2022-09-26T15:37:42.923Z,63510.31
2022-09-26T15:40:44.562Z,63510.31
2022-09-26T15:43:46.178Z,63510.31
2022-09-26T15:46:49.607Z,63510.31
2022-09-26T15:50:01.948Z,63510.31
2022-09-26T15:53:15.912Z,63510.31
2022-09-26T15:56:17.481Z,63510.31
2022-09-26T15:59:21.340Z,63510.31
2022-09-26T16:02:29.915Z,63510.31
2022-09-26T16:05:31.771Z,63510.31
2022-09-26T16:08:34.187Z,63510.31
2022-09-26T16:12:02.305Z,63510.31
2022-09-26T16:15:13.477Z,63510.31
2022-09-26T16:18:24.529Z,63510.31
2022-09-26T16:21:27.538Z,63510.31
2022-09-26T16:24:29.208Z,63510.31
2022-09-26T16:27:33.705Z,63510.31
2022-09-26T16:30:36.090Z,63510.31
2022-09-26T16:33:38.569Z,63510.31
2022-09-26T16:36:40.150Z,63510.31
2022-09-26T16:39:41.716Z,63510.31
2022-09-26T16:42:46.295Z,63510.31
2022-09-26T16:46:00.958Z,63510.31
2022-09-26T16:49:05.239Z,63510.31
2022-09-26T16:52:11.169Z,63510.31
2022-09-26T16:55:13.104Z,63510.31
2022-09-26T16:58:15.955Z,63510.31
2022-09-26T17:01:36.286Z,63510.31
2022-09-26T17:04:38.015Z,63510.31
2022-09-26T17:08:38.185Z,63510.31
2022-09-26T17:12:38.715Z,63510.31
2022-09-26T17:16:38.805Z,63510.31
2022-09-26T17:20:39.845Z,63510.31
2022-09-26T17:24:39.884Z,63510.31
2022-09-26T17:28:40.426Z,63510.31
2022-09-26T17:32:02.572Z,98121.75
2022-09-26T17:35:13.617Z,97494.72
2022-09-26T17:38:17.850Z,97505.03
2022-09-26T17:41:19.418Z,97499.28
2022-09-26T17:44:21.926Z,97501.63
2022-09-26T17:47:23.593Z,97501.31
2022-09-26T17:50:25.710Z,97487.63
2022-09-26T17:53:32.577Z,97504.16
2022-09-26T17:56:34.473Z,97508.94
2022-09-26T17:59:36.035Z,97506.47
2022-09-26T18:02:37.687Z,97518.09
2022-09-26T18:05:39.279Z,97523.31
2022-09-26T18:08:41.558Z,97524.88
2022-09-26T18:11:43.925Z,97533.63
2022-09-26T18:14:46.350Z,97521.28
2022-09-26T18:17:49.740Z,97525.72
2022-09-26T18:20:52.668Z,97533.28
2022-09-26T18:23:58.164Z,97544.72
2022-09-26T18:27:03.975Z,97555.13
2022-09-26T18:30:06.045Z,97536.47
2022-09-26T18:33:08.039Z,97526.06
2022-09-26T18:36:09.729Z,97546.53
2022-09-26T18:39:11.290Z,97540.13
2022-09-26T18:42:13.973Z,97546.88
2022-09-26T18:45:18.086Z,97550.81
2022-09-26T18:48:23.978Z,97554.25
2022-09-26T18:51:26.067Z,97550.03
2022-09-26T18:54:27.701Z,97559.16
2022-09-26T18:57:47.897Z,97567.56
2022-09-26T19:00:50.441Z,97556.97
2022-09-26T19:03:51.982Z,97557.19
2022-09-26T19:06:59.069Z,97554.75
2022-09-26T19:10:00.702Z,97556.97
2022-09-26T19:13:02.694Z,97546.47
2022-09-26T19:16:04.680Z,97555.63
2022-09-26T19:19:06.357Z,97541.47
2022-09-26T19:22:10.693Z,97550.50
2022-09-26T19:25:12.291Z,97547.25
2022-09-26T19:28:14.525Z,97556.41
2022-09-26T19:31:16.112Z,97554.63
2022-09-26T19:34:17.726Z,97549.38
2022-09-26T19:37:19.257Z,97564.78
2022-09-26T19:40:21.593Z,97562.41
2022-09-26T19:43:23.202Z,97560.28
2022-09-26T19:46:25.428Z,97577.50
2022-09-26T19:49:27.181Z,97575.88
2022-09-26T19:52:29.609Z,97575.59
2022-09-26T19:55:31.504Z,97576.50
2022-09-26T19:58:33.190Z,97580.94
2022-09-26T20:01:34.810Z,97569.19
2022-09-26T20:04:36.423Z,97573.41
2022-09-26T20:07:38.037Z,97579.25
2022-09-26T20:10:39.730Z,97588.03
2022-09-26T20:13:59.953Z,97579.72
2022-09-26T20:17:02.391Z,97589.25
2022-09-26T20:20:05.419Z,97585.59
2022-09-26T20:23:10.275Z,97594.63
2022-09-26T20:26:12.840Z,97589.41
2022-09-26T20:29:14.615Z,97592.91
2022-09-26T20:32:16.264Z,97595.13
2022-09-26T20:35:18.143Z,97600.25
2022-09-26T20:38:27.546Z,97603.50
2022-09-26T20:41:39.074Z,97587.84
2022-09-26T20:44:40.646Z,97587.97
2022-09-26T20:47:42.901Z,97590.63
2022-09-26T20:50:44.477Z,97593.66
2022-09-26T20:53:46.092Z,97602.22
2022-09-26T20:56:48.988Z,97600.66
2022-09-26T20:59:50.767Z,97604.34
2022-09-26T21:02:52.796Z,97594.84
2022-09-26T21:05:54.485Z,97595.88
2022-09-26T21:08:56.033Z,97595.88
2022-09-26T21:11:57.622Z,97587.69
2022-09-26T21:14:59.163Z,97594.25
2022-09-26T21:18:00.896Z,97591.78
2022-09-26T21:21:06.407Z,97599.28
2022-09-26T21:24:27.613Z,97595.56
2022-09-26T21:27:29.293Z,97587.84
2022-09-26T21:30:31.118Z,97585.19
2022-09-26T21:33:32.733Z,97591.25
2022-09-26T21:36:35.658Z,97605.34
2022-09-26T21:39:38.786Z,97603.91
2022-09-26T21:42:40.334Z,97593.66
2022-09-26T21:45:42.484Z,97605.09
2022-09-26T21:48:45.235Z,97610.72
2022-09-26T21:51:47.490Z,97612.84
2022-09-26T21:54:49.183Z,97610.03
2022-09-26T21:57:51.145Z,97604.00
2022-09-26T22:00:52.907Z,97614.88
2022-09-26T22:03:54.546Z,97611.47
2022-09-26T22:06:56.338Z,97596.72
2022-09-26T22:10:00.080Z,97605.44
2022-09-26T22:13:01.673Z,97600.34
2022-09-26T22:16:06.655Z,97609.28
2022-09-26T22:19:08.442Z,97605.59
2022-09-26T22:22:10.705Z,97607.13
2022-09-26T22:25:12.522Z,97609.09
2022-09-26T22:28:14.060Z,97609.03
2022-09-26T22:31:15.889Z,97605.41
2022-09-26T22:34:17.523Z,97597.31
2022-09-26T22:37:19.141Z,97600.03
2022-09-26T22:40:20.766Z,97599.13
2022-09-26T22:43:22.512Z,97605.84
2022-09-26T22:46:24.271Z,97587.50
2022-09-26T22:49:26.118Z,97588.63
2022-09-26T22:52:27.635Z,97583.66
2022-09-26T22:55:29.249Z,97588.47
2022-09-26T22:58:31.981Z,97577.97
2022-09-26T23:01:33.641Z,97571.91
2022-09-26T23:04:47.207Z,97578.44
2022-09-26T23:07:48.927Z,97560.78
2022-09-26T23:10:51.277Z,97554.69
2022-09-26T23:13:53.023Z,97550.44
2022-09-26T23:16:54.715Z,63510.31
2022-09-26T23:19:56.388Z,63510.31
2022-09-26T23:22:58.014Z,63510.31
2022-09-26T23:25:59.654Z,63510.31
2022-09-26T23:29:01.248Z,63510.31
2022-09-26T23:32:02.840Z,63510.31
2022-09-26T23:35:04.581Z,63510.31
2022-09-26T23:38:06.167Z,63510.31
2022-09-26T23:41:08.029Z,63510.31
2022-09-26T23:44:09.820Z,80838.94
2022-09-26T23:47:11.370Z,63510.31
2022-09-26T23:50:12.981Z,63510.31
2022-09-26T23:53:15.231Z,63510.31
2022-09-26T23:56:17.038Z,63510.31
2022-09-26T23:59:18.651Z,63510.31
